Time,TemperatureF,DewpointF,PressureIn,WindDirection,WindDirectionDegrees,WindSpeedMPH,WindSpeedGustMPH,Humidity,HourlyPrecipIn,Conditions,Clouds,dailyrainin,SoftwareType,DateUTC
2013-02-07 00:02:00,38.0,31.0,-100.00,SE,125,5.0,6.0,75,0.00,,,-99.99,,2013-02-07 06:02:00,
2013-02-07 00:11:00,38.0,31.0,-100.00,SSE,155,3.0,6.0,76,0.14,,,-99.99,,2013-02-07 06:11:00,
2013-02-07 00:22:00,38.0,32.0,-100.00,ESE,120,9.0,9.0,76,0.00,,,-99.99,,2013-02-07 06:22:00,
2013-02-07 00:32:00,38.0,32.0,-100.00,SE,130,7.0,9.0,78,0.00,,,-99.99,,2013-02-07 06:32:00,
2013-02-07 00:43:00,38.0,32.0,-100.00,SE,130,7.0,9.0,78,0.00,,,-99.99,,2013-02-07 06:43:00,
2013-02-07 00:52:00,38.0,32.0,-100.00,SE,145,6.0,9.0,78,0.00,,,-99.99,,2013-02-07 06:52:00,
2013-02-07 01:01:00,38.0,32.0,-100.00,SE,145,6.0,9.0,78,0.00,,,-99.99,,2013-02-07 07:01:00,
2013-02-07 01:11:00,38.0,32.0,-100.00,SE,145,8.0,11.0,78,0.00,,,-99.99,,2013-02-07 07:11:00,
2013-02-07 01:22:00,38.0,32.0,-100.00,SSE,155,7.0,9.0,78,0.00,,,-99.99,,2013-02-07 07:22:00,
2013-02-07 01:32:00,38.0,32.0,-100.00,SSE,155,6.0,7.0,78,0.00,,,-99.99,,2013-02-07 07:32:00,
2013-02-07 01:41:00,38.0,32.0,-100.00,SSE,155,6.0,7.0,78,0.00,,,-99.99,,2013-02-07 07:41:00,
2013-02-07 01:52:00,40.0,33.0,-100.00,South,175,9.0,12.0,76,0.00,,,-99.99,,2013-02-07 07:52:00,
2013-02-07 02:01:00,40.0,33.0,-100.00,South,175,9.0,12.0,76,0.00,,,-99.99,,2013-02-07 08:01:00,
2013-02-07 02:11:00,40.0,34.0,-100.00,South,175,8.0,11.0,76,0.00,,,-99.99,,2013-02-07 08:11:00,
2013-02-07 02:21:00,40.0,34.0,-100.00,SSE,160,7.0,10.0,79,0.00,,,-99.99,,2013-02-07 08:21:00,
2013-02-07 02:32:00,39.0,35.0,-100.00,SSE,150,6.0,9.0,84,0.00,,,-99.99,,2013-02-07 08:32:00,
2013-02-07 02:42:00,39.0,35.0,-100.00,SSE,150,6.0,9.0,84,0.00,,,-99.99,,2013-02-07 08:42:00,
2013-02-07 02:52:00,39.0,36.0,-100.00,SSE,165,6.0,7.0,88,0.00,,,-99.99,,2013-02-07 08:52:00,
2013-02-07 03:01:00,39.0,36.0,-100.00,SSE,165,6.0,7.0,88,0.00,,,-99.99,,2013-02-07 09:01:00,
2013-02-07 03:11:00,39.0,36.0,-100.00,SE,145,5.0,7.0,89,0.00,,,-99.99,,2013-02-07 09:11:00,
2013-02-07 03:21:00,38.0,36.0,-100.00,SE,145,4.0,6.0,89,0.00,,,-99.99,,2013-02-07 09:21:00,
2013-02-07 03:32:00,38.0,36.0,-100.00,East,100,4.0,5.0,91,0.04,,,-99.99,,2013-02-07 09:32:00,
2013-02-07 03:41:00,38.0,36.0,-100.00,East,100,4.0,5.0,91,0.04,,,-99.99,,2013-02-07 09:41:00,
2013-02-07 03:51:00,38.0,36.0,-100.00,East,85,4.0,6.0,92,0.00,,,-99.99,,2013-02-07 09:51:00,
2013-02-07 04:01:00,38.0,36.0,-100.00,East,85,4.0,6.0,92,0.00,,,-99.99,,2013-02-07 10:01:00,
2013-02-07 04:11:00,39.0,37.0,-100.00,ENE,75,2.0,4.0,92,0.00,,,-99.99,,2013-02-07 10:11:00,
2013-02-07 04:21:00,37.0,36.0,-100.00,NE,35,2.0,3.0,93,0.00,,,-99.99,,2013-02-07 10:21:00,
2013-02-07 04:22:00,39.0,37.0,-100.00,North,10,2.0,2.0,92,0.00,,,-99.99,,2013-02-07 10:22:00,
2013-02-07 04:32:00,37.0,36.0,-100.00,NE,35,2.0,3.0,93,0.00,,,-99.99,,2013-02-07 10:32:00,
2013-02-07 04:41:00,37.0,36.0,-100.00,NE,35,2.0,3.0,93,0.00,,,-99.99,,2013-02-07 10:41:00,
2013-02-07 04:51:00,37.0,36.0,-100.00,NE,35,2.0,3.0,93,0.00,,,-99.99,,2013-02-07 10:51:00,
2013-02-07 05:01:00,37.0,36.0,-100.00,NE,35,2.0,3.0,93,0.00,,,-99.99,,2013-02-07 11:01:00,
2013-02-07 05:11:00,37.0,36.0,-100.00,NE,35,2.0,3.0,93,0.00,,,-99.99,,2013-02-07 11:11:00,
2013-02-07 09:32:00,36.0,35.0,-100.00,NNW,335,9.0,12.0,96,0.59,,,-99.99,,2013-02-07 15:32:00,
2013-02-07 09:42:00,36.0,35.0,-100.00,NNW,335,9.0,12.0,96,0.59,,,-99.99,,2013-02-07 15:42:00,
2013-02-07 09:52:00,35.0,34.0,-100.00,NNW,340,13.0,17.0,96,0.78,,,-99.99,,2013-02-07 15:52:00,
2013-02-07 10:01:00,35.0,34.0,-100.00,NNW,340,13.0,17.0,96,0.78,,,-99.99,,2013-02-07 16:01:00,
2013-02-07 10:11:00,35.0,34.0,-100.00,NNW,345,11.0,17.0,96,0.27,,,-99.99,,2013-02-07 16:11:00,
2013-02-07 10:21:00,35.0,34.0,-100.00,NNW,335,12.0,15.0,96,0.20,,,-99.99,,2013-02-07 16:21:00,
2013-02-07 10:32:00,34.0,33.0,-100.00,NNW,340,13.0,19.0,96,0.21,,,-99.99,,2013-02-07 16:32:00,
2013-02-07 10:41:00,34.0,33.0,-100.00,NNW,340,13.0,19.0,96,0.21,,,-99.99,,2013-02-07 16:41:00,
2013-02-07 10:52:00,34.0,33.0,-100.00,NNW,340,9.0,14.0,96,0.10,,,-99.99,,2013-02-07 16:52:00,
2013-02-07 11:01:00,34.0,33.0,-100.00,NNW,340,9.0,14.0,96,0.10,,,-99.99,,2013-02-07 17:01:00,
2013-02-07 11:11:00,34.0,33.0,-100.00,NNW,340,11.0,15.0,96,0.06,,,-99.99,,2013-02-07 17:11:00,
2013-02-07 11:21:00,34.0,33.0,-100.00,NW,325,8.0,15.0,96,0.03,,,-99.99,,2013-02-07 17:21:00,
2013-02-07 11:32:00,34.0,33.0,-100.00,NW,325,11.0,14.0,96,0.00,,,-99.99,,2013-02-07 17:32:00,
2013-02-07 11:42:00,34.0,33.0,-100.00,NW,325,11.0,14.0,96,0.00,,,-99.99,,2013-02-07 17:42:00,
2013-02-07 11:52:00,33.0,32.0,-100.00,NW,320,11.0,18.0,96,0.00,,,-99.99,,2013-02-07 17:52:00,
2013-02-07 12:01:00,33.0,32.0,-100.00,NW,320,11.0,18.0,96,0.00,,,-99.99,,2013-02-07 18:01:00,
2013-02-07 12:11:00,32.0,31.0,-100.00,NW,325,11.0,18.0,96,0.00,,,-99.99,,2013-02-07 18:11:00,
2013-02-07 12:23:00,32.0,31.0,-100.00,NW,325,14.0,19.0,96,0.00,,,-99.99,,2013-02-07 18:23:00,
2013-02-07 12:32:00,32.0,31.0,-100.00,NW,315,15.0,22.0,96,0.00,,,-99.99,,2013-02-07 18:32:00,
2013-02-07 12:41:00,32.0,31.0,-100.00,NW,315,15.0,22.0,96,0.00,,,-99.99,,2013-02-07 18:41:00,
2013-02-07 12:51:00,31.0,30.0,-100.00,NNW,340,12.0,26.0,96,0.00,,,-99.99,,2013-02-07 18:51:00,
2013-02-07 13:01:00,31.0,30.0,-100.00,NNW,340,12.0,26.0,96,0.00,,,-99.99,,2013-02-07 19:01:00,
2013-02-07 13:11:00,31.0,30.0,-100.00,NW,325,13.0,20.0,96,0.00,,,-99.99,,2013-02-07 19:11:00,
2013-02-07 13:22:00,31.0,30.0,-100.00,NNW,330,13.0,25.0,96,0.00,,,-99.99,,2013-02-07 19:22:00,
2013-02-07 13:32:00,32.0,31.0,-100.00,NNW,340,16.0,21.0,95,0.00,,,-99.99,,2013-02-07 19:32:00,
2013-02-07 13:41:00,32.0,31.0,-100.00,NNW,340,16.0,21.0,95,0.00,,,-99.99,,2013-02-07 19:41:00,
2013-02-07 13:51:00,31.0,30.0,-100.00,NW,325,18.0,23.0,95,0.00,,,-99.99,,2013-02-07 19:51:00,
2013-02-07 14:01:00,31.0,30.0,-100.00,NW,325,18.0,23.0,95,0.00,,,-99.99,,2013-02-07 20:01:00,
2013-02-07 14:11:00,31.0,30.0,-100.00,NW,325,18.0,23.0,95,0.00,,,-99.99,,2013-02-07 20:11:00,
2013-02-07 14:21:00,31.0,30.0,-100.00,NNW,340,20.0,27.0,94,0.00,,,-99.99,,2013-02-07 20:21:00,
2013-02-07 14:31:00,31.0,29.0,-100.00,NNW,340,12.0,22.0,94,0.00,,,-99.99,,2013-02-07 20:31:00,
2013-02-07 14:41:00,31.0,29.0,-100.00,NNW,340,12.0,22.0,94,0.00,,,-99.99,,2013-02-07 20:41:00,
2013-02-07 14:52:00,31.0,29.0,-100.00,NNW,340,12.0,22.0,94,0.00,,,-99.99,,2013-02-07 20:52:00,
2013-02-07 15:02:00,31.0,29.0,-100.00,NNW,340,12.0,22.0,94,0.00,,,-99.99,,2013-02-07 21:02:00,
2013-02-07 15:11:00,31.0,29.0,-100.00,NNW,340,12.0,22.0,94,0.00,,,-99.99,,2013-02-07 21:11:00,